sensor_id;sensor_type;location;lat;lon;timestamp;temperature;humidity
14517;DHT22;7344;50.864;4.362;2023-04-03T00:01:08;4.10;99.90
14517;DHT22;7344;50.864;4.362;2023-04-03T00:03:34;4.00;99.90
14517;DHT22;7344;50.864;4.362;2023-04-03T00:06:00;4.00;99.90
14517;DHT22;7344;50.864;4.362;2023-04-03T00:08:26;4.00;99.90
14517;DHT22;7344;50.864;4.362;2023-04-03T00:10:52;4.00;99.90
14517;DHT22;7344;50.864;4.362;2023-04-03T00:13:17;4.00;99.90
14517;DHT22;7344;50.864;4.362;2023-04-03T00:15:44;4.00;99.90
14517;DHT22;7344;50.864;4.362;2023-04-03T00:18:10;4.00;99.90
14517;DHT22;7344;50.864;4.362;2023-04-03T00:20:36;4.00;99.90
14517;DHT22;7344;50.864;4.362;2023-04-03T00:23:02;4.00;99.90
14517;DHT22;7344;50.864;4.362;2023-04-03T00:25:28;4.00;99.90
14517;DHT22;7344;50.864;4.362;2023-04-03T00:27:53;3.90;99.90
14517;DHT22;7344;50.864;4.362;2023-04-03T00:30:21;3.90;99.90
14517;DHT22;7344;50.864;4.362;2023-04-03T00:32:51;3.90;99.90
14517;DHT22;7344;50.864;4.362;2023-04-03T00:35:17;3.90;99.90
14517;DHT22;7344;50.864;4.362;2023-04-03T00:37:44;3.90;99.90
14517;DHT22;7344;50.864;4.362;2023-04-03T00:40:10;3.80;99.90
14517;DHT22;7344;50.864;4.362;2023-04-03T00:42:37;3.80;99.90
14517;DHT22;7344;50.864;4.362;2023-04-03T00:47:30;3.80;99.90
14517;DHT22;7344;50.864;4.362;2023-04-03T00:49:57;3.80;99.90
14517;DHT22;7344;50.864;4.362;2023-04-03T00:52:28;3.70;99.90
14517;DHT22;7344;50.864;4.362;2023-04-03T00:54:58;3.70;99.90
14517;DHT22;7344;50.864;4.362;2023-04-03T00:57:26;3.70;99.90
14517;DHT22;7344;50.864;4.362;2023-04-03T00:59:55;3.60;99.90
14517;DHT22;7344;50.864;4.362;2023-04-03T01:02:23;3.70;99.90
14517;DHT22;7344;50.864;4.362;2023-04-03T01:04:49;3.60;99.90
14517;DHT22;7344;50.864;4.362;2023-04-03T01:07:21;3.50;99.90
14517;DHT22;7344;50.864;4.362;2023-04-03T01:09:48;3.60;99.90
14517;DHT22;7344;50.864;4.362;2023-04-03T01:12:20;3.50;99.90
14517;DHT22;7344;50.864;4.362;2023-04-03T01:14:51;3.50;99.90
14517;DHT22;7344;50.864;4.362;2023-04-03T01:17:30;3.50;99.90
14517;DHT22;7344;50.864;4.362;2023-04-03T01:20:23;3.50;99.90
14517;DHT22;7344;50.864;4.362;2023-04-03T01:25:21;3.30;99.90
14517;DHT22;7344;50.864;4.362;2023-04-03T01:27:47;3.40;99.90
14517;DHT22;7344;50.864;4.362;2023-04-03T01:30:14;3.30;99.90
14517;DHT22;7344;50.864;4.362;2023-04-03T01:32:41;3.30;99.90
14517;DHT22;7344;50.864;4.362;2023-04-03T01:35:08;3.20;99.90
14517;DHT22;7344;50.864;4.362;2023-04-03T01:37:35;3.20;99.90
14517;DHT22;7344;50.864;4.362;2023-04-03T01:40:00;3.20;99.90
14517;DHT22;7344;50.864;4.362;2023-04-03T01:42:26;3.20;99.90
14517;DHT22;7344;50.864;4.362;2023-04-03T01:44:51;3.20;99.90
14517;DHT22;7344;50.864;4.362;2023-04-03T01:47:17;3.10;99.90
14517;DHT22;7344;50.864;4.362;2023-04-03T01:49:43;3.10;99.90
14517;DHT22;7344;50.864;4.362;2023-04-03T01:52:08;3.10;99.90
14517;DHT22;7344;50.864;4.362;2023-04-03T01:54:34;3.10;99.90
14517;DHT22;7344;50.864;4.362;2023-04-03T01:57:00;3.10;99.90
14517;DHT22;7344;50.864;4.362;2023-04-03T01:59:25;3.10;99.90
14517;DHT22;7344;50.864;4.362;2023-04-03T02:01:51;3.10;99.90
14517;DHT22;7344;50.864;4.362;2023-04-03T02:04:17;3.10;99.90
14517;DHT22;7344;50.864;4.362;2023-04-03T02:06:42;3.10;99.90
14517;DHT22;7344;50.864;4.362;2023-04-03T02:09:08;3.10;99.90
14517;DHT22;7344;50.864;4.362;2023-04-03T02:11:33;3.10;99.90
14517;DHT22;7344;50.864;4.362;2023-04-03T02:13:59;3.00;99.90
14517;DHT22;7344;50.864;4.362;2023-04-03T02:16:25;3.00;99.90
14517;DHT22;7344;50.864;4.362;2023-04-03T02:18:50;3.00;99.90
14517;DHT22;7344;50.864;4.362;2023-04-03T02:21:16;3.00;99.90
14517;DHT22;7344;50.864;4.362;2023-04-03T02:23:42;3.00;99.90
14517;DHT22;7344;50.864;4.362;2023-04-03T02:26:10;3.00;99.90
14517;DHT22;7344;50.864;4.362;2023-04-03T02:28:36;3.00;99.90
14517;DHT22;7344;50.864;4.362;2023-04-03T02:31:03;3.00;99.90
14517;DHT22;7344;50.864;4.362;2023-04-03T02:33:29;3.00;99.90
14517;DHT22;7344;50.864;4.362;2023-04-03T02:35:56;2.90;99.90
14517;DHT22;7344;50.864;4.362;2023-04-03T02:38:22;2.80;99.90
14517;DHT22;7344;50.864;4.362;2023-04-03T02:40:48;2.90;99.90
14517;DHT22;7344;50.864;4.362;2023-04-03T02:43:13;2.90;99.90
14517;DHT22;7344;50.864;4.362;2023-04-03T02:45:39;2.90;99.90
14517;DHT22;7344;50.864;4.362;2023-04-03T02:48:05;2.80;99.90
14517;DHT22;7344;50.864;4.362;2023-04-03T02:50:30;2.90;99.90
14517;DHT22;7344;50.864;4.362;2023-04-03T02:52:56;2.90;99.90
14517;DHT22;7344;50.864;4.362;2023-04-03T02:55:22;2.80;99.90
14517;DHT22;7344;50.864;4.362;2023-04-03T02:57:47;2.70;99.90
14517;DHT22;7344;50.864;4.362;2023-04-03T03:00:13;2.70;99.90
14517;DHT22;7344;50.864;4.362;2023-04-03T03:02:40;2.80;99.90
14517;DHT22;7344;50.864;4.362;2023-04-03T03:05:06;2.70;99.90
14517;DHT22;7344;50.864;4.362;2023-04-03T03:07:32;2.70;99.90
14517;DHT22;7344;50.864;4.362;2023-04-03T03:09:57;2.80;99.90
14517;DHT22;7344;50.864;4.362;2023-04-03T03:12:23;2.70;99.90
14517;DHT22;7344;50.864;4.362;2023-04-03T03:14:50;2.70;99.90
14517;DHT22;7344;50.864;4.362;2023-04-03T03:17:16;2.70;99.90
14517;DHT22;7344;50.864;4.362;2023-04-03T03:19:42;2.70;99.90
14517;DHT22;7344;50.864;4.362;2023-04-03T03:22:07;2.70;99.90
14517;DHT22;7344;50.864;4.362;2023-04-03T03:24:33;2.70;99.90
14517;DHT22;7344;50.864;4.362;2023-04-03T03:26:58;2.70;99.90
14517;DHT22;7344;50.864;4.362;2023-04-03T03:29:24;2.70;99.90
14517;DHT22;7344;50.864;4.362;2023-04-03T03:31:50;2.70;99.90
14517;DHT22;7344;50.864;4.362;2023-04-03T03:34:15;2.60;99.90
14517;DHT22;7344;50.864;4.362;2023-04-03T03:36:41;2.60;99.90
14517;DHT22;7344;50.864;4.362;2023-04-03T03:39:07;2.60;99.90
14517;DHT22;7344;50.864;4.362;2023-04-03T03:41:33;2.60;99.90
14517;DHT22;7344;50.864;4.362;2023-04-03T03:43:58;2.60;99.90
14517;DHT22;7344;50.864;4.362;2023-04-03T03:46:24;2.60;99.90
14517;DHT22;7344;50.864;4.362;2023-04-03T03:48:49;2.60;99.90
14517;DHT22;7344;50.864;4.362;2023-04-03T03:51:15;2.60;99.90
14517;DHT22;7344;50.864;4.362;2023-04-03T03:53:41;2.60;99.90
14517;DHT22;7344;50.864;4.362;2023-04-03T03:56:07;2.60;99.90
14517;DHT22;7344;50.864;4.362;2023-04-03T03:58:33;2.50;99.90
14517;DHT22;7344;50.864;4.362;2023-04-03T04:01:06;2.50;99.90
14517;DHT22;7344;50.864;4.362;2023-04-03T04:03:32;2.50;99.90
14517;DHT22;7344;50.864;4.362;2023-04-03T04:05:58;2.50;99.90
14517;DHT22;7344;50.864;4.362;2023-04-03T04:08:23;2.40;99.90
14517;DHT22;7344;50.864;4.362;2023-04-03T04:10:49;2.40;99.90
14517;DHT22;7344;50.864;4.362;2023-04-03T04:13:16;2.40;99.90
14517;DHT22;7344;50.864;4.362;2023-04-03T04:15:42;2.40;99.90
14517;DHT22;7344;50.864;4.362;2023-04-03T04:18:08;2.40;99.90
14517;DHT22;7344;50.864;4.362;2023-04-03T04:20:34;2.40;99.90
14517;DHT22;7344;50.864;4.362;2023-04-03T04:22:59;2.30;99.90
14517;DHT22;7344;50.864;4.362;2023-04-03T04:25:25;2.30;99.90
14517;DHT22;7344;50.864;4.362;2023-04-03T04:27:51;2.30;99.90
14517;DHT22;7344;50.864;4.362;2023-04-03T04:30:17;2.30;99.90
14517;DHT22;7344;50.864;4.362;2023-04-03T04:32:43;2.30;99.90
14517;DHT22;7344;50.864;4.362;2023-04-03T04:35:09;2.30;99.90
14517;DHT22;7344;50.864;4.362;2023-04-03T04:37:35;2.30;99.90
14517;DHT22;7344;50.864;4.362;2023-04-03T04:40:00;2.30;99.90
14517;DHT22;7344;50.864;4.362;2023-04-03T04:42:26;2.20;99.90
14517;DHT22;7344;50.864;4.362;2023-04-03T04:44:51;2.20;99.90
14517;DHT22;7344;50.864;4.362;2023-04-03T04:47:17;2.20;99.90
14517;DHT22;7344;50.864;4.362;2023-04-03T04:49:43;2.20;99.90
14517;DHT22;7344;50.864;4.362;2023-04-03T04:52:09;2.20;99.90
14517;DHT22;7344;50.864;4.362;2023-04-03T04:54:34;2.20;99.90
14517;DHT22;7344;50.864;4.362;2023-04-03T04:57:00;2.20;99.90
14517;DHT22;7344;50.864;4.362;2023-04-03T04:59:26;2.20;99.90
14517;DHT22;7344;50.864;4.362;2023-04-03T05:01:51;2.20;99.90
14517;DHT22;7344;50.864;4.362;2023-04-03T05:04:17;2.20;99.90
14517;DHT22;7344;50.864;4.362;2023-04-03T05:06:43;2.10;99.90
14517;DHT22;7344;50.864;4.362;2023-04-03T05:09:08;2.00;99.90
14517;DHT22;7344;50.864;4.362;2023-04-03T05:11:35;2.10;99.90
14517;DHT22;7344;50.864;4.362;2023-04-03T05:14:01;2.10;99.90
14517;DHT22;7344;50.864;4.362;2023-04-03T05:16:27;2.10;99.90
14517;DHT22;7344;50.864;4.362;2023-04-03T05:18:52;2.10;99.90
14517;DHT22;7344;50.864;4.362;2023-04-03T05:21:18;2.20;99.90
14517;DHT22;7344;50.864;4.362;2023-04-03T05:23:44;2.20;99.90
14517;DHT22;7344;50.864;4.362;2023-04-03T05:26:09;2.20;99.90
14517;DHT22;7344;50.864;4.362;2023-04-03T05:28:35;2.20;99.90
14517;DHT22;7344;50.864;4.362;2023-04-03T05:31:00;2.30;99.90
14517;DHT22;7344;50.864;4.362;2023-04-03T05:33:27;2.30;99.90
14517;DHT22;7344;50.864;4.362;2023-04-03T05:35:53;2.40;99.90
14517;DHT22;7344;50.864;4.362;2023-04-03T05:38:19;2.30;99.90
14517;DHT22;7344;50.864;4.362;2023-04-03T05:40:45;2.40;99.90
14517;DHT22;7344;50.864;4.362;2023-04-03T05:43:11;2.40;99.90
14517;DHT22;7344;50.864;4.362;2023-04-03T05:45:36;2.50;99.90
14517;DHT22;7344;50.864;4.362;2023-04-03T05:48:02;2.80;99.90
14517;DHT22;7344;50.864;4.362;2023-04-03T05:50:28;3.30;99.90
14517;DHT22;7344;50.864;4.362;2023-04-03T05:52:56;4.20;99.90
14517;DHT22;7344;50.864;4.362;2023-04-03T05:55:22;5.20;99.90
14517;DHT22;7344;50.864;4.362;2023-04-03T05:57:48;6.00;99.90
14517;DHT22;7344;50.864;4.362;2023-04-03T06:00:14;7.30;99.90
14517;DHT22;7344;50.864;4.362;2023-04-03T06:02:43;8.00;99.90
14517;DHT22;7344;50.864;4.362;2023-04-03T06:05:09;9.10;99.90
14517;DHT22;7344;50.864;4.362;2023-04-03T06:07:36;9.30;99.90
14517;DHT22;7344;50.864;4.362;2023-04-03T06:10:02;9.60;99.90
14517;DHT22;7344;50.864;4.362;2023-04-03T06:12:28;10.30;99.90
14517;DHT22;7344;50.864;4.362;2023-04-03T06:14:55;10.50;99.90
14517;DHT22;7344;50.864;4.362;2023-04-03T06:17:21;11.40;98.10
14517;DHT22;7344;50.864;4.362;2023-04-03T06:19:46;12.30;96.00
14517;DHT22;7344;50.864;4.362;2023-04-03T06:22:13;12.90;94.50
14517;DHT22;7344;50.864;4.362;2023-04-03T06:24:39;13.40;92.10
14517;DHT22;7344;50.864;4.362;2023-04-03T06:27:05;13.70;90.90
14517;DHT22;7344;50.864;4.362;2023-04-03T06:29:31;13.70;90.90
14517;DHT22;7344;50.864;4.362;2023-04-03T06:31:56;14.40;87.30
14517;DHT22;7344;50.864;4.362;2023-04-03T06:34:22;15.20;81.20
14517;DHT22;7344;50.864;4.362;2023-04-03T06:36:59;14.90;79.80
14517;DHT22;7344;50.864;4.362;2023-04-03T06:39:25;15.10;79.00
14517;DHT22;7344;50.864;4.362;2023-04-03T06:41:51;15.20;75.90
14517;DHT22;7344;50.864;4.362;2023-04-03T06:44:17;15.10;73.50
14517;DHT22;7344;50.864;4.362;2023-04-03T06:46:43;14.90;76.50
14517;DHT22;7344;50.864;4.362;2023-04-03T06:49:09;15.30;74.40
14517;DHT22;7344;50.864;4.362;2023-04-03T06:51:36;14.70;76.20
14517;DHT22;7344;50.864;4.362;2023-04-03T06:54:03;13.90;78.60
14517;DHT22;7344;50.864;4.362;2023-04-03T06:56:29;14.30;77.90
14517;DHT22;7344;50.864;4.362;2023-04-03T06:58:55;13.50;83.70
14517;DHT22;7344;50.864;4.362;2023-04-03T07:01:24;13.40;86.40
14517;DHT22;7344;50.864;4.362;2023-04-03T07:03:51;13.30;88.50
14517;DHT22;7344;50.864;4.362;2023-04-03T07:06:17;13.30;90.20
14517;DHT22;7344;50.864;4.362;2023-04-03T07:08:44;13.50;88.40
14517;DHT22;7344;50.864;4.362;2023-04-03T07:11:11;13.90;86.30
14517;DHT22;7344;50.864;4.362;2023-04-03T07:13:37;14.00;84.30
14517;DHT22;7344;50.864;4.362;2023-04-03T07:16:03;14.20;80.90
14517;DHT22;7344;50.864;4.362;2023-04-03T07:18:31;14.90;80.00
14517;DHT22;7344;50.864;4.362;2023-04-03T07:20:57;14.40;82.00
14517;DHT22;7344;50.864;4.362;2023-04-03T07:23:23;13.60;82.60
14517;DHT22;7344;50.864;4.362;2023-04-03T07:25:50;12.50;88.40
14517;DHT22;7344;50.864;4.362;2023-04-03T07:28:17;12.50;89.40
14517;DHT22;7344;50.864;4.362;2023-04-03T07:30:48;12.20;90.10
14517;DHT22;7344;50.864;4.362;2023-04-03T07:33:15;12.00;91.60
14517;DHT22;7344;50.864;4.362;2023-04-03T07:35:41;12.00;92.60
14517;DHT22;7344;50.864;4.362;2023-04-03T07:38:08;12.30;91.50
14517;DHT22;7344;50.864;4.362;2023-04-03T07:40:34;12.10;92.60
14517;DHT22;7344;50.864;4.362;2023-04-03T07:43:00;13.50;90.20
14517;DHT22;7344;50.864;4.362;2023-04-03T07:45:26;13.70;85.20
14517;DHT22;7344;50.864;4.362;2023-04-03T07:47:52;13.20;85.80
14517;DHT22;7344;50.864;4.362;2023-04-03T07:50:18;13.10;88.20
14517;DHT22;7344;50.864;4.362;2023-04-03T07:52:44;13.30;87.70
14517;DHT22;7344;50.864;4.362;2023-04-03T07:55:11;12.90;87.30
14517;DHT22;7344;50.864;4.362;2023-04-03T07:57:36;12.40;89.50
14517;DHT22;7344;50.864;4.362;2023-04-03T08:00:04;12.00;91.20
14517;DHT22;7344;50.864;4.362;2023-04-03T08:02:30;12.80;89.10
14517;DHT22;7344;50.864;4.362;2023-04-03T08:04:58;13.50;89.80
14517;DHT22;7344;50.864;4.362;2023-04-03T08:07:23;14.20;83.90
14517;DHT22;7344;50.864;4.362;2023-04-03T08:09:49;14.90;78.80
14517;DHT22;7344;50.864;4.362;2023-04-03T08:12:16;13.80;81.60
14517;DHT22;7344;50.864;4.362;2023-04-03T08:14:41;13.20;85.80
14517;DHT22;7344;50.864;4.362;2023-04-03T08:17:08;13.80;83.40
14517;DHT22;7344;50.864;4.362;2023-04-03T08:19:40;12.80;88.10
14517;DHT22;7344;50.864;4.362;2023-04-03T08:22:06;13.20;86.40
14517;DHT22;7344;50.864;4.362;2023-04-03T08:24:32;13.00;83.80
14517;DHT22;7344;50.864;4.362;2023-04-03T08:26:58;12.10;90.00
14517;DHT22;7344;50.864;4.362;2023-04-03T08:29:24;12.60;90.60
14517;DHT22;7344;50.864;4.362;2023-04-03T08:31:50;12.00;89.70
14517;DHT22;7344;50.864;4.362;2023-04-03T08:34:17;10.90;93.50
14517;DHT22;7344;50.864;4.362;2023-04-03T08:36:43;10.90;94.60
14517;DHT22;7344;50.864;4.362;2023-04-03T08:39:10;12.20;92.50
14517;DHT22;7344;50.864;4.362;2023-04-03T08:41:38;13.00;90.10
14517;DHT22;7344;50.864;4.362;2023-04-03T08:49:59;13.60;85.40
14517;DHT22;7344;50.864;4.362;2023-04-03T08:52:38;12.40;89.50
14517;DHT22;7344;50.864;4.362;2023-04-03T08:55:13;12.30;90.50
14517;DHT22;7344;50.864;4.362;2023-04-03T08:57:43;12.50;89.60
14517;DHT22;7344;50.864;4.362;2023-04-03T09:02:46;13.10;85.90
14517;DHT22;7344;50.864;4.362;2023-04-03T09:05:34;12.40;87.90
14517;DHT22;7344;50.864;4.362;2023-04-03T09:10:44;13.00;86.20
14517;DHT22;7344;50.864;4.362;2023-04-03T09:21:45;14.00;76.10
14517;DHT22;7344;50.864;4.362;2023-04-03T09:24:13;14.30;76.50
14517;DHT22;7344;50.864;4.362;2023-04-03T09:27:03;14.30;75.20
14517;DHT22;7344;50.864;4.362;2023-04-03T09:29:29;13.40;77.20
14517;DHT22;7344;50.864;4.362;2023-04-03T09:34:48;13.20;73.70
14517;DHT22;7344;50.864;4.362;2023-04-03T09:40:03;14.10;72.80
14517;DHT22;7344;50.864;4.362;2023-04-03T09:42:30;13.50;73.70
14517;DHT22;7344;50.864;4.362;2023-04-03T09:45:05;13.60;73.50
14517;DHT22;7344;50.864;4.362;2023-04-03T09:47:32;12.70;75.20
14517;DHT22;7344;50.864;4.362;2023-04-03T09:50:19;12.40;74.50
14517;DHT22;7344;50.864;4.362;2023-04-03T09:52:55;11.80;79.70
14517;DHT22;7344;50.864;4.362;2023-04-03T09:55:26;11.70;80.50
14517;DHT22;7344;50.864;4.362;2023-04-03T09:58:00;11.60;80.60
14517;DHT22;7344;50.864;4.362;2023-04-03T10:00:32;12.10;80.40
14517;DHT22;7344;50.864;4.362;2023-04-03T10:02:59;12.00;79.70
14517;DHT22;7344;50.864;4.362;2023-04-03T10:05:30;11.90;81.60
14517;DHT22;7344;50.864;4.362;2023-04-03T10:10:48;12.90;76.60
14517;DHT22;7344;50.864;4.362;2023-04-03T10:13:17;13.70;72.20
14517;DHT22;7344;50.864;4.362;2023-04-03T10:15:56;13.60;67.20
14517;DHT22;7344;50.864;4.362;2023-04-03T10:24:51;12.40;72.10
14517;DHT22;7344;50.864;4.362;2023-04-03T10:27:23;11.90;72.50
14517;DHT22;7344;50.864;4.362;2023-04-03T10:35:25;11.60;75.90
14517;DHT22;7344;50.864;4.362;2023-04-03T10:38:31;12.00;71.60
14517;DHT22;7344;50.864;4.362;2023-04-03T10:43:39;12.00;71.30
14517;DHT22;7344;50.864;4.362;2023-04-03T10:52:25;11.70;62.60
14517;DHT22;7344;50.864;4.362;2023-04-03T10:57:32;11.10;72.90
14517;DHT22;7344;50.864;4.362;2023-04-03T11:00:02;11.30;67.40
14517;DHT22;7344;50.864;4.362;2023-04-03T11:02:58;11.70;63.40
14517;DHT22;7344;50.864;4.362;2023-04-03T11:07:53;11.30;56.90
14517;DHT22;7344;50.864;4.362;2023-04-03T11:13:13;11.20;55.90
14517;DHT22;7344;50.864;4.362;2023-04-03T11:15:42;11.20;54.60
14517;DHT22;7344;50.864;4.362;2023-04-03T11:18:15;11.40;55.20
14517;DHT22;7344;50.864;4.362;2023-04-03T11:20:49;11.60;59.30
14517;DHT22;7344;50.864;4.362;2023-04-03T11:23:22;11.90;58.60
14517;DHT22;7344;50.864;4.362;2023-04-03T11:25:51;11.80;62.40
14517;DHT22;7344;50.864;4.362;2023-04-03T11:28:18;11.30;66.30
14517;DHT22;7344;50.864;4.362;2023-04-03T11:30:49;11.20;75.30
14517;DHT22;7344;50.864;4.362;2023-04-03T11:38:43;11.40;70.20
14517;DHT22;7344;50.864;4.362;2023-04-03T11:41:11;11.50;70.40
14517;DHT22;7344;50.864;4.362;2023-04-03T11:43:54;11.40;65.90
14517;DHT22;7344;50.864;4.362;2023-04-03T11:46:22;11.00;64.20
14517;DHT22;7344;50.864;4.362;2023-04-03T11:48:49;11.20;65.70
14517;DHT22;7344;50.864;4.362;2023-04-03T11:53:46;12.20;60.50
14517;DHT22;7344;50.864;4.362;2023-04-03T11:59:16;12.10;62.40
14517;DHT22;7344;50.864;4.362;2023-04-03T12:04:13;12.00;66.40
14517;DHT22;7344;50.864;4.362;2023-04-03T12:11:47;11.70;68.90
14517;DHT22;7344;50.864;4.362;2023-04-03T12:14:16;11.50;70.40
14517;DHT22;7344;50.864;4.362;2023-04-03T12:16:43;11.50;69.00
14517;DHT22;7344;50.864;4.362;2023-04-03T12:27:01;10.30;52.80
14517;DHT22;7344;50.864;4.362;2023-04-03T12:32:06;10.10;52.60
14517;DHT22;7344;50.864;4.362;2023-04-03T12:43:35;10.50;51.00
14517;DHT22;7344;50.864;4.362;2023-04-03T12:46:12;10.40;52.40
14517;DHT22;7344;50.864;4.362;2023-04-03T12:48:58;10.20;52.40
14517;DHT22;7344;50.864;4.362;2023-04-03T12:51:29;10.40;54.30
14517;DHT22;7344;50.864;4.362;2023-04-03T12:54:19;10.60;52.80
14517;DHT22;7344;50.864;4.362;2023-04-03T12:56:45;10.10;51.00
14517;DHT22;7344;50.864;4.362;2023-04-03T13:01:57;10.50;51.50
14517;DHT22;7344;50.864;4.362;2023-04-03T13:04:23;10.40;51.00
14517;DHT22;7344;50.864;4.362;2023-04-03T13:06:49;10.50;52.20
14517;DHT22;7344;50.864;4.362;2023-04-03T13:11:44;10.30;51.20
14517;DHT22;7344;50.864;4.362;2023-04-03T13:14:24;10.60;50.90
14517;DHT22;7344;50.864;4.362;2023-04-03T13:16:56;10.50;48.70
14517;DHT22;7344;50.864;4.362;2023-04-03T13:19:24;10.50;47.10
14517;DHT22;7344;50.864;4.362;2023-04-03T13:21:59;10.40;46.20
14517;DHT22;7344;50.864;4.362;2023-04-03T13:24:26;10.40;47.80
14517;DHT22;7344;50.864;4.362;2023-04-03T13:26:52;10.50;46.90
14517;DHT22;7344;50.864;4.362;2023-04-03T13:29:27;10.60;47.10
14517;DHT22;7344;50.864;4.362;2023-04-03T13:31:55;10.70;46.30
14517;DHT22;7344;50.864;4.362;2023-04-03T13:34:22;10.70;45.70
14517;DHT22;7344;50.864;4.362;2023-04-03T13:39:29;10.30;43.90
14517;DHT22;7344;50.864;4.362;2023-04-03T13:42:01;10.30;41.90
14517;DHT22;7344;50.864;4.362;2023-04-03T13:44:34;10.20;42.80
14517;DHT22;7344;50.864;4.362;2023-04-03T13:47:17;10.20;43.10
14517;DHT22;7344;50.864;4.362;2023-04-03T13:52:52;10.30;45.60
14517;DHT22;7344;50.864;4.362;2023-04-03T13:55:23;10.30;46.40
14517;DHT22;7344;50.864;4.362;2023-04-03T13:58:01;10.30;46.80
14517;DHT22;7344;50.864;4.362;2023-04-03T14:00:32;10.10;45.60
14517;DHT22;7344;50.864;4.362;2023-04-03T14:02:59;10.10;46.20
14517;DHT22;7344;50.864;4.362;2023-04-03T14:05:25;10.30;48.00
14517;DHT22;7344;50.864;4.362;2023-04-03T14:07:53;10.60;48.20
14517;DHT22;7344;50.864;4.362;2023-04-03T14:10:19;10.60;47.80
14517;DHT22;7344;50.864;4.362;2023-04-03T14:12:44;10.70;47.20
14517;DHT22;7344;50.864;4.362;2023-04-03T14:15:28;10.40;44.90
14517;DHT22;7344;50.864;4.362;2023-04-03T14:17:54;10.50;45.80
14517;DHT22;7344;50.864;4.362;2023-04-03T14:20:23;10.20;46.40
14517;DHT22;7344;50.864;4.362;2023-04-03T14:22:50;10.30;47.60
14517;DHT22;7344;50.864;4.362;2023-04-03T14:25:17;10.30;46.80
14517;DHT22;7344;50.864;4.362;2023-04-03T14:27:45;10.40;46.00
14517;DHT22;7344;50.864;4.362;2023-04-03T14:32:46;10.30;47.20
14517;DHT22;7344;50.864;4.362;2023-04-03T14:35:13;10.30;47.90
14517;DHT22;7344;50.864;4.362;2023-04-03T14:37:39;10.30;46.80
14517;DHT22;7344;50.864;4.362;2023-04-03T14:40:06;10.30;47.50
14517;DHT22;7344;50.864;4.362;2023-04-03T14:42:37;10.40;48.20
14517;DHT22;7344;50.864;4.362;2023-04-03T14:45:06;10.70;47.20
14517;DHT22;7344;50.864;4.362;2023-04-03T14:47:33;10.50;45.90
14517;DHT22;7344;50.864;4.362;2023-04-03T14:50:06;10.40;47.00
14517;DHT22;7344;50.864;4.362;2023-04-03T14:52:35;10.50;48.30
14517;DHT22;7344;50.864;4.362;2023-04-03T14:55:02;10.40;47.50
14517;DHT22;7344;50.864;4.362;2023-04-03T14:57:29;10.40;47.60
14517;DHT22;7344;50.864;4.362;2023-04-03T14:59:56;10.50;48.90
14517;DHT22;7344;50.864;4.362;2023-04-03T15:02:26;10.60;49.60
14517;DHT22;7344;50.864;4.362;2023-04-03T15:04:52;10.60;49.80
14517;DHT22;7344;50.864;4.362;2023-04-03T15:07:18;10.70;50.50
14517;DHT22;7344;50.864;4.362;2023-04-03T15:09:44;10.90;49.70
14517;DHT22;7344;50.864;4.362;2023-04-03T15:12:09;10.60;48.00
14517;DHT22;7344;50.864;4.362;2023-04-03T15:14:35;10.60;48.20
14517;DHT22;7344;50.864;4.362;2023-04-03T15:17:01;10.60;48.20
14517;DHT22;7344;50.864;4.362;2023-04-03T15:19:29;10.60;47.20
14517;DHT22;7344;50.864;4.362;2023-04-03T15:21:55;10.60;47.40
14517;DHT22;7344;50.864;4.362;2023-04-03T15:24:20;10.50;47.80
14517;DHT22;7344;50.864;4.362;2023-04-03T15:26:46;10.60;47.80
14517;DHT22;7344;50.864;4.362;2023-04-03T15:29:12;10.50;45.90
14517;DHT22;7344;50.864;4.362;2023-04-03T15:31:37;10.30;45.40
14517;DHT22;7344;50.864;4.362;2023-04-03T15:34:03;10.30;45.50
14517;DHT22;7344;50.864;4.362;2023-04-03T15:36:29;10.50;47.00
14517;DHT22;7344;50.864;4.362;2023-04-03T15:38:54;10.60;46.50
14517;DHT22;7344;50.864;4.362;2023-04-03T15:41:20;10.40;45.60
14517;DHT22;7344;50.864;4.362;2023-04-03T15:43:46;10.50;46.30
14517;DHT22;7344;50.864;4.362;2023-04-03T15:46:12;10.50;45.90
14517;DHT22;7344;50.864;4.362;2023-04-03T15:48:38;10.30;45.00
14517;DHT22;7344;50.864;4.362;2023-04-03T15:51:05;10.30;46.20
14517;DHT22;7344;50.864;4.362;2023-04-03T15:53:31;10.40;45.20
14517;DHT22;7344;50.864;4.362;2023-04-03T15:55:57;10.40;45.50
14517;DHT22;7344;50.864;4.362;2023-04-03T15:58:22;10.30;46.40
14517;DHT22;7344;50.864;4.362;2023-04-03T16:00:48;10.40;46.90
14517;DHT22;7344;50.864;4.362;2023-04-03T16:03:20;10.40;47.20
14517;DHT22;7344;50.864;4.362;2023-04-03T16:05:47;10.50;48.60
14517;DHT22;7344;50.864;4.362;2023-04-03T16:08:13;10.50;47.80
14517;DHT22;7344;50.864;4.362;2023-04-03T16:10:39;10.40;47.20
14517;DHT22;7344;50.864;4.362;2023-04-03T16:13:06;10.40;47.10
14517;DHT22;7344;50.864;4.362;2023-04-03T16:15:32;10.40;47.60
14517;DHT22;7344;50.864;4.362;2023-04-03T16:18:00;10.20;46.50
14517;DHT22;7344;50.864;4.362;2023-04-03T16:20:27;10.10;47.30
14517;DHT22;7344;50.864;4.362;2023-04-03T16:22:53;10.20;48.40
14517;DHT22;7344;50.864;4.362;2023-04-03T16:25:18;10.20;49.50
14517;DHT22;7344;50.864;4.362;2023-04-03T16:27:44;10.10;50.00
14517;DHT22;7344;50.864;4.362;2023-04-03T16:30:10;10.00;49.90
14517;DHT22;7344;50.864;4.362;2023-04-03T16:32:37;9.90;51.70
14517;DHT22;7344;50.864;4.362;2023-04-03T16:35:05;9.90;52.90
14517;DHT22;7344;50.864;4.362;2023-04-03T16:37:31;10.00;52.20
14517;DHT22;7344;50.864;4.362;2023-04-03T16:39:56;9.90;53.80
14517;DHT22;7344;50.864;4.362;2023-04-03T16:42:24;10.00;51.20
14517;DHT22;7344;50.864;4.362;2023-04-03T16:44:50;10.10;51.60
14517;DHT22;7344;50.864;4.362;2023-04-03T16:47:16;10.10;52.40
14517;DHT22;7344;50.864;4.362;2023-04-03T16:49:44;10.10;53.50
14517;DHT22;7344;50.864;4.362;2023-04-03T16:52:10;10.00;54.10
14517;DHT22;7344;50.864;4.362;2023-04-03T16:54:36;10.00;54.20
14517;DHT22;7344;50.864;4.362;2023-04-03T16:57:02;9.90;55.20
14517;DHT22;7344;50.864;4.362;2023-04-03T16:59:28;9.80;56.20
14517;DHT22;7344;50.864;4.362;2023-04-03T17:01:53;9.80;55.80
14517;DHT22;7344;50.864;4.362;2023-04-03T17:04:19;9.80;56.40
14517;DHT22;7344;50.864;4.362;2023-04-03T17:06:45;9.80;56.60
14517;DHT22;7344;50.864;4.362;2023-04-03T17:09:10;9.80;56.40
14517;DHT22;7344;50.864;4.362;2023-04-03T17:11:37;9.80;56.30
14517;DHT22;7344;50.864;4.362;2023-04-03T17:14:04;9.70;56.10
14517;DHT22;7344;50.864;4.362;2023-04-03T17:16:31;9.70;56.20
14517;DHT22;7344;50.864;4.362;2023-04-03T17:18:58;9.70;56.90
14517;DHT22;7344;50.864;4.362;2023-04-03T17:21:24;9.70;57.70
14517;DHT22;7344;50.864;4.362;2023-04-03T17:23:54;9.70;57.90
14517;DHT22;7344;50.864;4.362;2023-04-03T17:26:23;9.60;57.90
14517;DHT22;7344;50.864;4.362;2023-04-03T17:28:51;9.60;58.30
14517;DHT22;7344;50.864;4.362;2023-04-03T17:31:16;9.50;57.90
14517;DHT22;7344;50.864;4.362;2023-04-03T17:33:42;9.50;58.50
14517;DHT22;7344;50.864;4.362;2023-04-03T17:36:08;9.50;58.30
14517;DHT22;7344;50.864;4.362;2023-04-03T17:38:33;9.50;59.40
14517;DHT22;7344;50.864;4.362;2023-04-03T17:41:02;9.40;60.00
14517;DHT22;7344;50.864;4.362;2023-04-03T17:43:28;9.40;60.80
14517;DHT22;7344;50.864;4.362;2023-04-03T17:45:59;9.40;59.10
14517;DHT22;7344;50.864;4.362;2023-04-03T17:48:31;9.30;59.50